Time;durP1;ratioP1;P1;durP2;ratioP2;P2;SDS_P1;SDS_P2;PMS_P1;PMS_P2;Temp;Humidity;BMP_temperature;BMP_pressure;BME280_temperature;BME280_humidity;BME280_pressure;Samples;Min_cycle;Max_cycle;Signal;HPM_P1;HPM_P2
2021/10/07 00:01:24;;;;;;;7.80;7.00;;;8.60;99.90;;;;;;5067913;28;20254;-50
2021/10/07 00:03:49;;;;;;;7.73;6.50;;;8.60;99.90;;;;;;5073127;28;20182;-50
2021/10/07 00:06:15;;;;;;;8.70;7.67;;;8.50;99.90;;;;;;5082608;28;20299;-60
2021/10/07 00:08:40;;;;;;;7.20;6.50;;;8.50;99.90;;;;;;5070045;28;20214;-51
2021/10/07 00:11:06;;;;;;;7.23;6.53;;;8.40;99.90;;;;;;5061138;28;20185;-51
2021/10/07 00:13:32;;;;;;;8.30;7.13;;;8.40;99.90;;;;;;5066473;28;20181;-51
2021/10/07 00:15:59;;;;;;;7.77;6.97;;;8.40;99.90;;;;;;5067294;28;20213;-59
2021/10/07 00:18:24;;;;;;;14.60;7.30;;;8.30;99.90;;;;;;5071774;28;20643;-54
2021/10/07 00:20:50;;;;;;;8.87;6.40;;;8.30;99.90;;;;;;5074437;28;20438;-52
2021/10/07 00:23:21;;;;;;;8.17;6.50;;;8.30;99.90;;;;;;5074972;28;20189;-52
2021/10/07 00:25:46;;;;;;;7.40;6.63;;;8.30;99.90;;;;;;5088031;28;20196;-52
2021/10/07 00:28:12;;;;;;;7.10;6.40;;;8.30;99.90;;;;;;5080356;28;20435;-50
2021/10/07 00:30:39;;;;;;;7.53;6.43;;;8.40;99.90;;;;;;5075775;28;20173;-54
2021/10/07 00:33:14;;;;;;;8.23;7.43;;;8.40;99.90;;;;;;5081732;28;20724;-51
2021/10/07 00:36:01;;;;;;;6.87;6.17;;;8.40;99.90;;;;;;5062178;28;20420;-49
2021/10/07 00:41:11;;;;;;;7.50;6.70;;;8.40;99.90;;;;;;5059987;28;20457;-51
2021/10/07 00:43:37;;;;;;;7.50;6.70;;;8.30;99.90;;;;;;5067168;28;20476;-54
2021/10/07 00:46:02;;;;;;;9.07;7.33;;;8.30;99.90;;;;;;5066712;28;20208;-54
2021/10/07 00:48:28;;;;;;;7.63;6.87;;;8.30;99.90;;;;;;5062874;28;20206;-52
2021/10/07 00:50:54;;;;;;;7.90;7.10;;;8.20;99.90;;;;;;5060920;28;20193;-49
2021/10/07 00:53:20;;;;;;;6.53;5.93;;;8.20;99.90;;;;;;5063601;28;20213;-50
2021/10/07 00:55:46;;;;;;;7.33;6.10;;;8.10;99.90;;;;;;5069805;28;20189;-53
2021/10/07 00:58:14;;;;;;;8.17;6.67;;;8.10;99.90;;;;;;5063058;28;20439;-52
2021/10/07 01:00:39;;;;;;;6.90;6.23;;;8.00;99.90;;;;;;5061709;28;21013;-52
2021/10/07 01:03:05;;;;;;;6.60;6.00;;;8.00;99.90;;;;;;5069835;28;20463;-51
2021/10/07 01:05:31;;;;;;;6.40;5.70;;;7.90;99.90;;;;;;5058728;28;20213;-51
2021/10/07 01:07:57;;;;;;;7.27;6.43;;;7.90;99.90;;;;;;5067733;28;20180;-52
2021/10/07 01:10:24;;;;;;;7.17;6.47;;;7.90;99.90;;;;;;5069156;28;20778;-54
2021/10/07 01:12:50;;;;;;;7.10;6.37;;;8.00;99.90;;;;;;5069014;28;20246;-53
2021/10/07 01:15:15;;;;;;;7.57;6.87;;;7.90;99.90;;;;;;5070516;28;20459;-54
2021/10/07 01:17:41;;;;;;;6.17;5.57;;;7.90;99.90;;;;;;5066533;28;20239;-53
2021/10/07 01:20:07;;;;;;;6.83;5.90;;;7.80;99.90;;;;;;5059129;28;20185;-52
2021/10/07 01:22:33;;;;;;;7.30;5.77;;;7.80;99.90;;;;;;5064839;28;20192;-52
2021/10/07 01:25:00;;;;;;;6.33;5.70;;;7.80;99.90;;;;;;5075368;28;20455;-51
2021/10/07 01:27:27;;;;;;;7.00;6.33;;;7.80;99.90;;;;;;5077004;28;20440;-50
2021/10/07 01:29:58;;;;;;;7.00;6.10;;;7.70;99.90;;;;;;5064623;28;20510;-53
2021/10/07 01:32:24;;;;;;;6.77;6.00;;;7.70;99.90;;;;;;5057645;28;20460;-49
2021/10/07 01:34:50;;;;;;;6.50;5.80;;;7.60;99.90;;;;;;5060619;28;20471;-52
2021/10/07 01:37:16;;;;;;;6.40;5.80;;;7.60;99.90;;;;;;5074879;28;20451;-52
2021/10/07 01:39:41;;;;;;;7.00;6.30;;;7.50;99.90;;;;;;5069712;28;20243;-53
2021/10/07 01:42:07;;;;;;;7.40;6.13;;;7.50;99.90;;;;;;5063960;28;20428;-52
2021/10/07 01:44:33;;;;;;;7.00;6.07;;;7.50;99.90;;;;;;5064749;28;20237;-49
2021/10/07 01:46:58;;;;;;;7.10;6.40;;;7.40;99.90;;;;;;5057501;28;20530;-52
2021/10/07 01:49:24;;;;;;;8.33;5.90;;;7.40;99.90;;;;;;5065762;28;20239;-52
2021/10/07 01:51:50;;;;;;;6.90;6.20;;;7.30;99.90;;;;;;5071305;28;20185;-50
2021/10/07 01:54:16;;;;;;;10.83;5.73;;;7.30;99.90;;;;;;5072160;28;20240;-52
2021/10/07 01:56:41;;;;;;;7.67;6.43;;;7.40;99.90;;;;;;5062215;28;20190;-54
2021/10/07 01:59:07;;;;;;;9.67;6.60;;;7.40;99.90;;;;;;5075541;28;20937;-60
2021/10/07 02:01:34;;;;;;;6.33;5.73;;;7.40;99.90;;;;;;5072841;28;20189;-53
2021/10/07 02:04:04;;;;;;;5.97;5.43;;;7.30;99.90;;;;;;5071627;28;20284;-55
2021/10/07 02:06:30;;;;;;;8.53;5.77;;;7.30;99.90;;;;;;5073138;28;20453;-51
2021/10/07 02:08:56;;;;;;;6.60;5.63;;;7.40;99.90;;;;;;5069790;28;21110;-54
2021/10/07 02:11:22;;;;;;;7.00;5.70;;;7.40;99.90;;;;;;5072530;28;20432;-53
2021/10/07 02:13:48;;;;;;;7.73;6.43;;;7.40;99.90;;;;;;5054170;28;20435;-50
2021/10/07 02:16:13;;;;;;;8.67;5.67;;;7.30;99.90;;;;;;5069149;28;20458;-58
2021/10/07 02:18:39;;;;;;;6.67;5.57;;;7.30;99.90;;;;;;5071983;28;20232;-50
2021/10/07 02:21:05;;;;;;;8.10;5.63;;;7.30;99.90;;;;;;5061085;28;20190;-51
2021/10/07 02:23:30;;;;;;;9.00;6.40;;;7.30;99.90;;;;;;5055653;28;20186;-53
2021/10/07 02:25:56;;;;;;;9.93;6.47;;;7.30;99.90;;;;;;5072897;28;20797;-51
2021/10/07 02:28:21;;;;;;;6.73;6.03;;;7.30;99.90;;;;;;5070172;28;20549;-51
2021/10/07 02:30:47;;;;;;;7.10;5.97;;;7.30;99.90;;;;;;5063811;28;20613;-53
2021/10/07 02:33:13;;;;;;;8.40;6.67;;;7.30;99.90;;;;;;5062705;28;20185;-49
2021/10/07 02:35:38;;;;;;;6.90;5.90;;;7.30;99.90;;;;;;5069676;28;20189;-48
2021/10/07 02:38:04;;;;;;;7.37;6.50;;;7.30;99.90;;;;;;5066867;28;20269;-50
2021/10/07 02:40:31;;;;;;;7.60;6.70;;;7.30;99.90;;;;;;5069961;28;20481;-53
2021/10/07 02:42:58;;;;;;;8.00;5.80;;;7.40;99.90;;;;;;5065883;28;20471;-53
2021/10/07 02:45:23;;;;;;;8.83;7.03;;;7.30;99.90;;;;;;5070878;28;20463;-50
2021/10/07 02:47:51;;;;;;;8.70;6.73;;;7.30;99.90;;;;;;5063908;28;20435;-49
2021/10/07 02:50:18;;;;;;;8.70;7.10;;;7.40;99.90;;;;;;5067391;28;20178;-53
2021/10/07 02:52:44;;;;;;;8.20;6.90;;;7.30;99.90;;;;;;5061569;28;20485;-53
2021/10/07 02:55:10;;;;;;;8.27;7.10;;;7.30;99.90;;;;;;5072234;28;20790;-53
2021/10/07 02:57:36;;;;;;;8.47;6.33;;;7.30;99.90;;;;;;5071391;28;20443;-49
2021/10/07 03:00:03;;;;;;;9.13;6.40;;;7.30;99.90;;;;;;5062956;28;20625;-54
2021/10/07 03:02:29;;;;;;;8.57;7.00;;;7.20;99.90;;;;;;5069353;28;20412;-55
2021/10/07 03:04:55;;;;;;;7.57;6.77;;;7.20;99.90;;;;;;5056445;28;20476;-53
2021/10/07 03:07:20;;;;;;;9.00;7.53;;;7.20;99.90;;;;;;5072298;28;20285;-50
2021/10/07 03:09:46;;;;;;;9.47;7.00;;;7.20;99.90;;;;;;5069328;28;20200;-54
2021/10/07 03:12:12;;;;;;;7.93;6.67;;;7.20;99.90;;;;;;5067450;28;20655;-53
2021/10/07 03:14:39;;;;;;;8.70;7.47;;;7.10;99.90;;;;;;5064133;28;20186;-52
2021/10/07 03:17:06;;;;;;;7.93;6.73;;;7.10;99.90;;;;;;5070301;28;20225;-50
2021/10/07 03:19:32;;;;;;;8.13;6.37;;;7.10;99.90;;;;;;5067506;28;20449;-52
2021/10/07 03:21:57;;;;;;;7.13;6.43;;;7.00;99.90;;;;;;5052090;28;20432;-51
2021/10/07 03:24:23;;;;;;;9.20;6.67;;;7.00;99.90;;;;;;5065490;28;20509;-53
2021/10/07 03:26:49;;;;;;;8.63;7.33;;;7.00;99.90;;;;;;5057514;28;20511;-50
2021/10/07 03:29:14;;;;;;;8.27;7.20;;;7.00;99.90;;;;;;5063219;28;20201;-48
2021/10/07 03:31:40;;;;;;;7.90;6.30;;;7.00;99.90;;;;;;5079541;28;20185;-51
2021/10/07 03:34:05;;;;;;;8.77;7.00;;;7.00;99.90;;;;;;5085441;28;20189;-53
2021/10/07 03:36:31;;;;;;;9.37;7.27;;;7.00;99.90;;;;;;5077052;28;20189;-48
2021/10/07 03:38:57;;;;;;;10.50;7.07;;;7.00;99.90;;;;;;5079032;28;20659;-57
2021/10/07 03:41:22;;;;;;;7.90;6.57;;;7.00;99.90;;;;;;5068383;28;20383;-50
2021/10/07 03:43:48;;;;;;;10.57;7.57;;;7.00;99.90;;;;;;5066239;28;20221;-53
2021/10/07 03:46:14;;;;;;;14.40;6.27;;;7.00;99.90;;;;;;5074978;28;20659;-52
2021/10/07 03:48:39;;;;;;;11.85;6.80;;;7.00;99.90;;;;;;5068339;28;20181;-50
2021/10/07 03:51:05;;;;;;;10.20;7.40;;;7.00;99.90;;;;;;5074615;28;20188;-48
2021/10/07 03:53:31;;;;;;;9.07;7.00;;;6.90;99.90;;;;;;5072863;28;20182;-50
2021/10/07 03:55:56;;;;;;;8.30;6.53;;;6.90;99.90;;;;;;5065160;28;20312;-54
2021/10/07 03:58:22;;;;;;;8.27;6.93;;;6.90;99.90;;;;;;5067458;28;20779;-55
2021/10/07 04:00:47;;;;;;;8.03;6.87;;;6.80;99.90;;;;;;5075113;28;20193;-54
2021/10/07 04:03:13;;;;;;;8.53;6.60;;;6.80;99.90;;;;;;5071456;28;20197;-54
2021/10/07 04:05:39;;;;;;;9.50;6.60;;;6.80;99.90;;;;;;5069309;28;20237;-55
2021/10/07 04:08:04;;;;;;;9.00;6.63;;;6.80;99.90;;;;;;5073549;28;20185;-51
2021/10/07 04:10:31;;;;;;;8.80;7.17;;;6.80;99.90;;;;;;5063170;28;20200;-55
2021/10/07 04:12:57;;;;;;;10.30;7.90;;;6.80;99.90;;;;;;5089319;28;20184;-53
2021/10/07 04:15:22;;;;;;;10.93;7.67;;;6.90;99.90;;;;;;5084945;28;20491;-55
2021/10/07 04:17:48;;;;;;;9.60;8.20;;;6.80;99.90;;;;;;5062362;28;20200;-50
2021/10/07 04:20:14;;;;;;;8.30;7.40;;;6.70;99.90;;;;;;5062022;28;20647;-51
2021/10/07 04:22:39;;;;;;;8.90;7.00;;;6.70;99.90;;;;;;5061712;28;20196;-50
2021/10/07 04:25:05;;;;;;;8.83;7.53;;;6.80;99.90;;;;;;5068624;28;20743;-52
2021/10/07 04:27:31;;;;;;;10.35;7.78;;;6.80;99.90;;;;;;5073712;28;20181;-56
2021/10/07 04:29:59;;;;;;;9.77;7.67;;;6.80;99.90;;;;;;5061490;28;20174;-52
2021/10/07 04:32:24;;;;;;;12.02;7.30;;;6.80;99.90;;;;;;5060840;28;20597;-55
2021/10/07 04:34:50;;;;;;;8.70;7.47;;;6.80;99.90;;;;;;5061767;28;20565;-51
2021/10/07 04:37:15;;;;;;;10.63;7.40;;;6.80;99.90;;;;;;5070615;28;20300;-54
2021/10/07 04:39:41;;;;;;;8.87;7.40;;;6.70;99.90;;;;;;5077579;28;20555;-57
2021/10/07 04:42:07;;;;;;;9.87;7.87;;;6.70;99.90;;;;;;5064435;28;20186;-55
2021/10/07 04:44:32;;;;;;;10.03;7.33;;;6.70;99.90;;;;;;5066043;28;20237;-50
2021/10/07 04:46:58;;;;;;;11.83;7.33;;;6.70;99.90;;;;;;5069171;28;20268;-53
2021/10/07 04:49:24;;;;;;;12.90;7.83;;;6.70;99.90;;;;;;5069233;28;20193;-52
2021/10/07 04:51:49;;;;;;;9.10;8.10;;;6.70;99.90;;;;;;5070039;28;20217;-53
2021/10/07 04:54:15;;;;;;;8.20;7.30;;;6.60;99.90;;;;;;5068891;28;20297;-55
2021/10/07 04:56:40;;;;;;;10.80;7.57;;;6.60;99.90;;;;;;5064236;28;20240;-55
2021/10/07 04:59:06;;;;;;;9.13;7.93;;;6.60;99.90;;;;;;5062626;28;20198;-53
2021/10/07 05:01:31;;;;;;;9.30;6.90;;;6.50;99.90;;;;;;5068392;28;20930;-56
2021/10/07 05:03:57;;;;;;;8.37;6.80;;;6.50;99.90;;;;;;5069338;28;20181;-53
2021/10/07 05:06:22;;;;;;;9.37;7.37;;;6.50;99.90;;;;;;5069839;28;20666;-55
2021/10/07 05:08:48;;;;;;;9.77;7.47;;;6.40;99.90;;;;;;5089886;28;20189;-53
2021/10/07 05:11:14;;;;;;;8.93;7.00;;;6.40;99.90;;;;;;5081301;28;20181;-54
2021/10/07 05:13:40;;;;;;;8.80;7.30;;;6.40;99.90;;;;;;5086920;28;20177;-55
2021/10/07 05:16:06;;;;;;;12.43;7.43;;;6.40;99.90;;;;;;5089339;28;20189;-54
2021/10/07 05:18:31;;;;;;;11.50;7.20;;;6.40;99.90;;;;;;5065108;28;20420;-57
2021/10/07 05:20:57;;;;;;;9.97;7.60;;;6.40;99.90;;;;;;5068358;28;20190;-54
2021/10/07 05:23:23;;;;;;;10.87;7.47;;;6.40;99.90;;;;;;5071641;28;20186;-54
2021/10/07 05:25:48;;;;;;;11.23;6.70;;;6.40;99.90;;;;;;5068672;28;20225;-61
2021/10/07 05:28:14;;;;;;;12.07;8.40;;;6.40;99.90;;;;;;5053917;28;20213;-52
2021/10/07 05:30:40;;;;;;;11.57;7.73;;;6.40;99.90;;;;;;5056348;28;20238;-52
2021/10/07 05:33:05;;;;;;;7.73;6.43;;;6.30;99.90;;;;;;5071560;28;20425;-50
2021/10/07 05:35:31;;;;;;;9.80;7.50;;;6.30;99.90;;;;;;5078573;28;20192;-55
2021/10/07 05:37:57;;;;;;;10.47;7.40;;;6.20;99.90;;;;;;5080803;28;20185;-53
2021/10/07 05:40:22;;;;;;;9.93;7.37;;;6.30;99.90;;;;;;5069131;28;20189;-56
2021/10/07 05:42:48;;;;;;;9.53;6.90;;;6.20;99.90;;;;;;5068554;28;20719;-54
2021/10/07 05:45:14;;;;;;;8.83;6.60;;;6.20;99.90;;;;;;5069247;28;20220;-55
2021/10/07 05:47:40;;;;;;;8.33;7.20;;;6.20;99.90;;;;;;5070923;28;20632;-51
2021/10/07 05:50:08;;;;;;;9.88;7.35;;;6.30;99.90;;;;;;5089385;28;20486;-54
2021/10/07 05:52:34;;;;;;;8.38;7.40;;;6.30;99.90;;;;;;5067839;28;20185;-54
2021/10/07 05:55:00;;;;;;;9.77;7.30;;;6.30;99.90;;;;;;5068894;28;20503;-55
2021/10/07 05:57:25;;;;;;;8.80;7.33;;;6.30;99.90;;;;;;5067500;28;20501;-56
2021/10/07 05:59:52;;;;;;;9.10;7.23;;;6.40;99.90;;;;;;5066421;28;20188;-53
2021/10/07 06:02:17;;;;;;;8.13;6.65;;;6.40;99.90;;;;;;5066916;28;20174;-55
2021/10/07 06:04:43;;;;;;;7.60;6.80;;;6.40;99.90;;;;;;5052865;28;20265;-56
2021/10/07 06:07:09;;;;;;;10.50;8.30;;;6.40;99.90;;;;;;5075676;28;20188;-54
2021/10/07 06:09:35;;;;;;;9.00;7.90;;;6.40;99.90;;;;;;5064292;28;20204;-55
2021/10/07 06:12:00;;;;;;;8.27;7.00;;;6.40;99.90;;;;;;5072245;28;20234;-53
2021/10/07 06:14:26;;;;;;;9.17;7.73;;;6.40;99.90;;;;;;5085166;28;20268;-54
2021/10/07 06:16:53;;;;;;;8.07;6.80;;;6.40;99.90;;;;;;5085685;28;20644;-55
2021/10/07 06:19:20;;;;;;;8.73;6.80;;;6.40;99.90;;;;;;5074474;28;20419;-56
2021/10/07 06:21:46;;;;;;;11.10;7.95;;;6.40;99.90;;;;;;5088295;28;20268;-54
2021/10/07 06:24:11;;;;;;;9.37;7.50;;;6.40;99.90;;;;;;5072508;28;20305;-51
2021/10/07 06:26:38;;;;;;;9.67;8.20;;;6.40;99.90;;;;;;5071057;28;20193;-50
2021/10/07 06:29:04;;;;;;;10.32;8.60;;;6.50;99.90;;;;;;5068387;28;20196;-51
2021/10/07 06:31:30;;;;;;;10.47;8.50;;;6.50;99.90;;;;;;5067706;28;20177;-54
2021/10/07 06:33:55;;;;;;;9.00;7.67;;;6.60;99.90;;;;;;5077353;28;20256;-52
2021/10/07 06:36:21;;;;;;;10.10;8.30;;;6.60;99.90;;;;;;5085914;28;20186;-54
2021/10/07 06:38:46;;;;;;;10.23;8.30;;;6.70;99.90;;;;;;5073317;28;20276;-53
2021/10/07 06:41:12;;;;;;;9.20;8.00;;;6.70;99.90;;;;;;5085547;28;20651;-53
2021/10/07 06:43:37;;;;;;;9.13;7.80;;;6.80;99.90;;;;;;5087673;28;20235;-52
2021/10/07 06:46:03;;;;;;;9.40;8.13;;;6.80;99.90;;;;;;5092291;28;20216;-52
2021/10/07 06:48:29;;;;;;;8.70;7.50;;;7.00;99.90;;;;;;5086391;28;20256;-56
2021/10/07 06:50:54;;;;;;;8.50;7.33;;;6.90;99.90;;;;;;5081070;28;20515;-53
2021/10/07 06:53:20;;;;;;;8.30;7.23;;;7.00;99.90;;;;;;5089772;28;20514;-54
2021/10/07 06:55:45;;;;;;;8.30;7.40;;;7.10;99.90;;;;;;5087609;28;20190;-54
2021/10/07 06:58:13;;;;;;;9.30;8.07;;;7.20;99.90;;;;;;5073884;28;20225;-52
2021/10/07 07:00:40;;;;;;;9.60;7.53;;;7.30;99.90;;;;;;5092118;28;20235;-60
2021/10/07 07:03:05;;;;;;;9.00;8.00;;;7.40;99.90;;;;;;5082665;28;20463;-50
2021/10/07 07:05:31;;;;;;;8.97;8.07;;;7.60;99.90;;;;;;5079504;28;20973;-55
2021/10/07 07:07:57;;;;;;;9.50;7.10;;;7.60;99.90;;;;;;5066552;28;20185;-54
2021/10/07 07:10:22;;;;;;;8.83;7.90;;;7.80;99.90;;;;;;5066798;28;20171;-50
2021/10/07 07:12:50;;;;;;;9.50;7.90;;;7.80;99.90;;;;;;5057008;28;20177;-55
2021/10/07 07:15:16;;;;;;;8.30;7.30;;;7.80;99.90;;;;;;5072052;28;20778;-53
2021/10/07 07:17:42;;;;;;;9.67;7.53;;;7.90;99.90;;;;;;5069779;28;20418;-52
2021/10/07 07:20:09;;;;;;;9.63;7.80;;;8.00;99.90;;;;;;5069403;28;20499;-53
2021/10/07 07:22:35;;;;;;;8.37;6.90;;;8.10;99.90;;;;;;5068752;28;20906;-53
2021/10/07 07:25:00;;;;;;;8.80;7.17;;;8.20;99.90;;;;;;5071172;28;20467;-51
2021/10/07 07:27:26;;;;;;;7.90;7.10;;;8.20;99.90;;;;;;5070504;28;20652;-52
2021/10/07 07:29:52;;;;;;;9.57;7.30;;;8.40;99.90;;;;;;5069577;28;20202;-52
2021/10/07 07:32:18;;;;;;;9.20;6.97;;;8.50;99.90;;;;;;5066113;28;20194;-50
2021/10/07 07:34:43;;;;;;;8.63;7.20;;;8.60;99.90;;;;;;5068286;28;20432;-52
2021/10/07 07:37:09;;;;;;;9.40;7.80;;;8.60;99.90;;;;;;5062227;28;20258;-52
2021/10/07 07:39:35;;;;;;;10.03;7.07;;;8.80;99.90;;;;;;5060623;28;20187;-53
2021/10/07 07:42:00;;;;;;;8.70;7.00;;;8.90;99.90;;;;;;5055692;28;20264;-52
2021/10/07 07:44:26;;;;;;;7.87;7.10;;;9.10;99.90;;;;;;5070017;28;20562;-51
2021/10/07 07:46:52;;;;;;;7.90;7.07;;;9.30;99.90;;;;;;5067033;28;20197;-54
2021/10/07 07:49:18;;;;;;;7.67;6.70;;;9.40;99.90;;;;;;5078985;28;20434;-54
2021/10/07 07:51:44;;;;;;;7.43;6.60;;;9.60;99.90;;;;;;5078185;28;20427;-50
2021/10/07 07:54:09;;;;;;;7.83;6.47;;;9.90;99.90;;;;;;5064125;28;20170;-54
2021/10/07 07:56:35;;;;;;;6.60;5.90;;;10.10;99.90;;;;;;5063274;28;20186;-52
2021/10/07 07:59:01;;;;;;;8.47;5.67;;;10.40;99.90;;;;;;5062473;28;20691;-52
2021/10/07 08:01:26;;;;;;;5.97;5.47;;;10.70;99.90;;;;;;5062985;28;20193;-50
2021/10/07 08:03:52;;;;;;;6.20;5.60;;;11.10;99.90;;;;;;5061475;28;20178;-53
2021/10/07 08:06:18;;;;;;;6.90;5.10;;;11.60;99.90;;;;;;5063464;28;20198;-53
2021/10/07 08:08:43;;;;;;;5.30;4.80;;;12.30;99.90;;;;;;5067997;28;20435;-54
2021/10/07 08:11:09;;;;;;;4.50;4.10;;;12.90;99.90;;;;;;5059986;28;20177;-50
2021/10/07 08:13:34;;;;;;;7.50;4.30;;;13.40;99.90;;;;;;5058722;28;20186;-53
2021/10/07 08:16:00;;;;;;;4.80;4.07;;;14.20;99.90;;;;;;5057190;28;20272;-55
2021/10/07 08:18:26;;;;;;;5.40;5.00;;;14.90;99.90;;;;;;5060259;28;20557;-53
2021/10/07 08:20:53;;;;;;;5.20;4.80;;;15.70;99.90;;;;;;5058752;28;20253;-53
2021/10/07 08:23:22;;;;;;;5.17;4.77;;;16.50;99.90;;;;;;5058067;28;20550;-53
2021/10/07 08:25:49;;;;;;;5.30;4.80;;;17.30;99.90;;;;;;5062593;28;20454;-52
2021/10/07 08:28:14;;;;;;;5.00;4.50;;;18.20;97.60;;;;;;5064787;28;20468;-51
2021/10/07 08:30:40;;;;;;;5.57;5.07;;;18.60;94.50;;;;;;5069189;28;20910;-53
2021/10/07 08:33:06;;;;;;;5.40;5.00;;;19.10;93.00;;;;;;5069720;28;20397;-53
2021/10/07 08:35:32;;;;;;;5.07;4.77;;;19.30;92.50;;;;;;5058231;28;20917;-54
2021/10/07 08:37:57;;;;;;;6.20;5.60;;;19.60;91.90;;;;;;5049695;28;20779;-51
2021/10/07 08:40:23;;;;;;;5.57;5.20;;;20.00;90.20;;;;;;5058521;28;20455;-56
2021/10/07 08:42:49;;;;;;;5.90;5.40;;;20.50;87.20;;;;;;5056560;28;20688;-54
2021/10/07 08:45:15;;;;;;;5.57;5.17;;;20.60;83.40;;;;;;5069601;28;20462;-51
2021/10/07 08:47:42;;;;;;;5.50;5.13;;;20.40;84.70;;;;;;5061784;28;20182;-50
2021/10/07 08:50:09;;;;;;;5.83;5.43;;;20.80;84.00;;;;;;5067834;28;20296;-51
2021/10/07 08:52:35;;;;;;;5.90;5.60;;;21.40;80.60;;;;;;5068709;28;20486;-52
2021/10/07 08:55:01;;;;;;;5.80;5.40;;;21.40;79.90;;;;;;5071103;28;20438;-53
2021/10/07 08:57:27;;;;;;;6.37;5.97;;;21.70;76.40;;;;;;5058903;28;20428;-53
2021/10/07 08:59:53;;;;;;;9.37;5.83;;;21.80;77.40;;;;;;5055407;28;20646;-51
2021/10/07 09:02:30;;;;;;;5.90;5.50;;;22.50;73.20;;;;;;5062048;28;20427;-53
2021/10/07 09:05:09;;;;;;;5.67;5.37;;;22.60;71.40;;;;;;5061459;28;20246;-53
2021/10/07 09:07:51;;;;;;;6.13;5.67;;;23.20;70.50;;;;;;5060156;28;20968;-52
2021/10/07 09:10:17;;;;;;;5.53;5.03;;;23.90;68.80;;;;;;5052265;28;20440;-54
2021/10/07 09:13:03;;;;;;;5.73;5.33;;;24.30;63.80;;;;;;5067963;28;20428;-54
2021/10/07 09:15:29;;;;;;;6.27;5.87;;;24.20;62.80;;;;;;5058961;28;20178;-50
2021/10/07 09:17:55;;;;;;;6.60;6.10;;;24.50;60.50;;;;;;5082071;28;20416;-53
2021/10/07 09:20:35;;;;;;;6.00;5.60;;;24.60;58.60;;;;;;5068488;28;20444;-51
2021/10/07 09:23:06;;;;;;;5.40;5.10;;;24.80;57.90;;;;;;5075271;28;20229;-55
2021/10/07 09:25:48;;;;;;;6.13;5.63;;;24.80;57.40;;;;;;5078949;28;20457;-51
2021/10/07 09:28:13;;;;;;;5.93;5.40;;;25.30;55.30;;;;;;5087485;28;20451;-56
2021/10/07 09:30:40;;;;;;;5.67;5.27;;;25.60;55.30;;;;;;5085851;28;20492;-53
2021/10/07 09:33:08;;;;;;;6.40;5.80;;;25.60;52.50;;;;;;5086688;28;20202;-54
2021/10/07 09:35:37;;;;;;;6.80;6.40;;;25.10;53.90;;;;;;5064552;28;20426;-52
2021/10/07 09:38:05;;;;;;;6.03;5.63;;;25.50;53.50;;;;;;5067475;28;21084;-54
2021/10/07 09:40:31;;;;;;;6.20;5.60;;;26.20;54.00;;;;;;5073801;28;20460;-53
2021/10/07 09:43:00;;;;;;;5.30;5.00;;;26.50;50.70;;;;;;5068356;28;20458;-55
2021/10/07 09:45:28;;;;;;;4.80;4.40;;;26.30;49.20;;;;;;5077667;28;20468;-50
2021/10/07 09:48:01;;;;;;;4.73;4.43;;;26.50;48.20;;;;;;5088667;28;20426;-56
2021/10/07 09:50:33;;;;;;;5.10;4.77;;;27.00;47.40;;;;;;5067175;28;20449;-53
2021/10/07 09:53:14;;;;;;;5.60;5.20;;;26.70;47.70;;;;;;5059112;28;20901;-54
2021/10/07 09:55:43;;;;;;;5.60;5.17;;;26.10;48.90;;;;;;5067258;28;20433;-54
2021/10/07 09:58:15;;;;;;;5.43;5.03;;;26.80;48.50;;;;;;5067933;28;20408;-53
2021/10/07 10:00:46;;;;;;;5.67;5.27;;;26.40;48.80;;;;;;5065934;28;20981;-53
2021/10/07 10:03:12;;;;;;;5.37;5.00;;;26.80;48.50;;;;;;5067380;28;20796;-54
2021/10/07 10:05:40;;;;;;;5.83;5.33;;;27.30;47.00;;;;;;5056638;28;20456;-54
2021/10/07 10:08:07;;;;;;;5.80;5.50;;;26.50;48.10;;;;;;5066587;28;20422;-53
2021/10/07 10:10:34;;;;;;;5.30;5.00;;;26.80;47.90;;;;;;5066994;28;20458;-56
2021/10/07 10:13:01;;;;;;;6.77;6.30;;;27.00;46.60;;;;;;5073193;28;20448;-55
2021/10/07 10:15:26;;;;;;;5.23;4.83;;;27.30;44.40;;;;;;5070050;28;20435;-55
2021/10/07 10:17:52;;;;;;;5.70;5.20;;;26.60;46.00;;;;;;5074148;28;20429;-54
2021/10/07 10:20:25;;;;;;;5.70;5.27;;;26.70;46.50;;;;;;5071619;28;20312;-58
2021/10/07 10:23:00;;;;;;;5.83;5.43;;;27.00;46.70;;;;;;5064555;28;20660;-53
2021/10/07 10:25:28;;;;;;;5.80;5.40;;;26.70;46.50;;;;;;5073768;28;20465;-53
2021/10/07 10:28:02;;;;;;;5.87;5.37;;;26.90;45.50;;;;;;5077931;28;20424;-56
2021/10/07 10:30:41;;;;;;;5.30;5.00;;;26.70;44.60;;;;;;5076430;28;20402;-55
2021/10/07 10:33:27;;;;;;;5.47;4.97;;;27.50;45.40;;;;;;5075577;28;20421;-54
2021/10/07 10:35:53;;;;;;;5.83;5.40;;;27.90;43.90;;;;;;5067289;28;20411;-54
2021/10/07 10:38:18;;;;;;;5.33;5.03;;;28.10;43.50;;;;;;5069799;28;20426;-53
2021/10/07 10:40:44;;;;;;;5.20;4.90;;;27.90;44.50;;;;;;5071232;28;20451;-54
2021/10/07 10:43:18;;;;;;;5.43;5.13;;;28.00;44.30;;;;;;5071049;28;20696;-59
2021/10/07 10:45:53;;;;;;;4.93;4.63;;;28.20;43.50;;;;;;5071296;28;20215;-56
2021/10/07 10:48:41;;;;;;;5.37;5.07;;;29.20;41.30;;;;;;5070748;28;20912;-54
2021/10/07 10:51:15;;;;;;;5.33;4.93;;;29.70;41.40;;;;;;5069485;28;21154;-52
2021/10/07 10:54:00;;;;;;;4.27;4.07;;;29.20;39.90;;;;;;5068049;28;20541;-52
2021/10/07 10:56:33;;;;;;;4.87;4.57;;;29.40;38.20;;;;;;5070377;28;20945;-50
2021/10/07 10:59:19;;;;;;;4.80;4.57;;;28.60;39.90;;;;;;5070291;28;20408;-55
2021/10/07 11:02:05;;;;;;;4.90;4.67;;;28.30;41.50;;;;;;5051751;28;20760;-55
2021/10/07 11:04:53;;;;;;;4.90;4.57;;;29.20;39.70;;;;;;5052688;28;20473;-57
2021/10/07 11:07:30;;;;;;;4.60;4.40;;;29.30;38.70;;;;;;5052470;28;20473;-54
2021/10/07 11:10:03;;;;;;;4.33;4.03;;;29.40;39.40;;;;;;5070402;28;20490;-55
2021/10/07 11:12:48;;;;;;;5.20;4.90;;;29.40;39.00;;;;;;5054892;28;20423;-56
2021/10/07 11:15:14;;;;;;;4.87;4.57;;;28.80;39.70;;;;;;5070633;28;20409;-55
2021/10/07 11:17:42;;;;;;;5.30;5.00;;;29.10;38.30;;;;;;5082355;28;20414;-54
2021/10/07 11:20:15;;;;;;;5.00;4.70;;;29.70;38.10;;;;;;5084494;28;20415;-59
2021/10/07 11:22:57;;;;;;;4.93;4.63;;;30.10;36.50;;;;;;5078645;28;20855;-53
2021/10/07 11:25:22;;;;;;;5.20;4.90;;;30.30;36.30;;;;;;5079795;28;20462;-56
2021/10/07 11:27:48;;;;;;;4.30;4.10;;;29.70;37.20;;;;;;5078552;28;20403;-51
2021/10/07 11:30:19;;;;;;;4.50;4.10;;;29.40;36.50;;;;;;5069361;28;20190;-55
2021/10/07 11:32:44;;;;;;;4.90;4.63;;;30.00;36.00;;;;;;5069574;28;20842;-50
2021/10/07 11:35:15;;;;;;;4.93;4.73;;;30.50;35.50;;;;;;5069837;28;20477;-50
2021/10/07 11:37:53;;;;;;;4.93;4.63;;;29.50;34.30;;;;;;5061984;28;20194;-50
2021/10/07 11:40:36;;;;;;;5.20;4.90;;;28.20;38.50;;;;;;5062925;28;20451;-56
2021/10/07 11:43:05;;;;;;;5.40;5.00;;;28.40;38.00;;;;;;5069948;28;20474;-52
2021/10/07 11:45:34;;;;;;;4.80;4.60;;;28.30;38.50;;;;;;5070227;28;20461;-55
2021/10/07 11:48:01;;;;;;;5.07;4.87;;;28.30;37.60;;;;;;5070014;28;20427;-52
2021/10/07 11:50:27;;;;;;;5.90;5.60;;;28.30;37.60;;;;;;5068887;28;20795;-55
2021/10/07 11:52:56;;;;;;;5.63;5.33;;;28.40;37.00;;;;;;5059225;28;20446;-54
2021/10/07 11:55:23;;;;;;;5.20;5.00;;;28.40;37.30;;;;;;5063154;28;20424;-56
2021/10/07 11:58:00;;;;;;;4.83;4.53;;;28.90;37.50;;;;;;5069188;28;20416;-50
2021/10/07 12:00:52;;;;;;;4.50;4.30;;;29.70;36.70;;;;;;5069056;28;20418;-55
2021/10/07 12:03:31;;;;;;;4.30;4.10;;;30.30;34.70;;;;;;5066170;28;20436;-58
2021/10/07 12:06:00;;;;;;;4.70;4.50;;;30.20;35.20;;;;;;5061538;28;21302;-56
2021/10/07 12:08:32;;;;;;;4.83;4.53;;;31.10;34.00;;;;;;5068452;28;20416;-55
2021/10/07 12:11:04;;;;;;;4.60;4.40;;;31.30;32.40;;;;;;5068938;28;20469;-57
2021/10/07 12:14:00;;;;;;;4.90;4.70;;;30.60;34.40;;;;;;5069289;28;20474;-52
2021/10/07 12:16:29;;;;;;;4.73;4.53;;;30.60;33.00;;;;;;5066594;28;20428;-53
2021/10/07 12:19:07;;;;;;;4.57;4.37;;;31.30;32.70;;;;;;5068145;28;20542;-53
2021/10/07 12:21:43;;;;;;;4.90;4.70;;;31.10;32.70;;;;;;5068891;28;20419;-50
2021/10/07 12:24:13;;;;;;;5.07;4.77;;;31.10;32.40;;;;;;5069082;28;20419;-55
2021/10/07 12:27:01;;;;;;;5.20;5.00;;;30.70;31.60;;;;;;5069316;28;20645;-53
2021/10/07 12:29:32;;;;;;;4.90;4.67;;;29.50;34.60;;;;;;5055538;28;20519;-56
2021/10/07 12:32:04;;;;;;;4.60;4.40;;;30.40;33.00;;;;;;5069101;28;20435;-55
2021/10/07 12:34:32;;;;;;;4.67;4.47;;;30.50;32.70;;;;;;5069063;28;20419;-49
2021/10/07 12:37:00;;;;;;;4.70;4.50;;;29.90;32.70;;;;;;5069290;28;20421;-55
2021/10/07 12:39:33;;;;;;;4.70;4.50;;;29.30;34.10;;;;;;5069189;28;20416;-57
2021/10/07 12:42:05;;;;;;;4.70;4.50;;;29.40;32.80;;;;;;5068962;28;20804;-55
2021/10/07 12:44:36;;;;;;;4.10;3.90;;;30.30;32.20;;;;;;5068841;28;20505;-59
2021/10/07 12:47:09;;;;;;;5.40;5.03;;;30.30;31.80;;;;;;5066893;28;21149;-51
2021/10/07 12:49:42;;;;;;;4.43;4.20;;;30.10;32.10;;;;;;5057035;28;20560;-56
2021/10/07 12:52:12;;;;;;;4.73;4.43;;;29.90;32.30;;;;;;5065751;28;20902;-55
2021/10/07 12:54:38;;;;;;;4.60;4.30;;;29.70;32.70;;;;;;5063586;28;20442;-55
2021/10/07 12:57:04;;;;;;;4.60;4.40;;;29.80;32.90;;;;;;5066946;28;20608;-56
2021/10/07 12:59:29;;;;;;;4.70;4.50;;;30.10;32.30;;;;;;5065897;28;20463;-54